createdAt,value
2023-02-19T00:01:47.552Z,102535.41
2023-02-19T00:04:20.386Z,102540.22
2023-02-19T00:06:48.072Z,102529.22
2023-02-19T00:09:17.399Z,102535.97
2023-02-19T00:11:44.720Z,102525.59
2023-02-19T00:14:16.301Z,102526.34
2023-02-19T00:16:43.597Z,102526.03
2023-02-19T00:19:16.432Z,102524.03
2023-02-19T00:21:43.865Z,102518.03
2023-02-19T00:24:12.540Z,102526.44
2023-02-19T00:26:40.981Z,102520.19
2023-02-19T00:29:09.574Z,102514.41
2023-02-19T00:31:37.026Z,102518.78
2023-02-19T00:34:06.451Z,102519.28
2023-02-19T00:36:37.905Z,102515.41
2023-02-19T00:39:07.150Z,102516.97
2023-02-19T00:41:35.760Z,102512.63
2023-02-19T00:44:05.591Z,102512.84
2023-02-19T00:46:41.651Z,102505.44
2023-02-19T00:49:16.031Z,102500.50
2023-02-19T00:51:43.098Z,102506.44
2023-02-19T00:54:10.842Z,102499.59
2023-02-19T00:56:37.942Z,102502.31
2023-02-19T00:59:05.003Z,102495.47
2023-02-19T01:01:32.263Z,102490.31
2023-02-19T01:03:59.335Z,102496.00
2023-02-19T01:06:26.468Z,102491.06
2023-02-19T01:08:53.676Z,102486.34
2023-02-19T01:11:20.731Z,102480.59
2023-02-19T01:13:48.154Z,102471.69
2023-02-19T01:16:21.149Z,102472.22
2023-02-19T01:18:48.834Z,102478.53
2023-02-19T01:21:21.126Z,102479.59
2023-02-19T01:23:50.041Z,102467.13
2023-02-19T01:26:20.049Z,102469.56
2023-02-19T01:28:48.500Z,102468.16
2023-02-19T01:31:21.457Z,102463.31
2023-02-19T01:33:52.120Z,102461.69
2023-02-19T01:36:19.479Z,102463.31
2023-02-19T01:38:46.648Z,102466.78
2023-02-19T01:41:17.137Z,102462.88
2023-02-19T01:44:03.948Z,102459.13
2023-02-19T01:46:35.869Z,102464.22
2023-02-19T01:49:09.119Z,102465.59
2023-02-19T01:51:39.584Z,102459.63
2023-02-19T01:54:11.437Z,102456.81
2023-02-19T01:56:42.907Z,102446.91
2023-02-19T01:59:10.703Z,102458.84
2023-02-19T02:01:39.495Z,102450.28
2023-02-19T02:04:11.175Z,102452.91
2023-02-19T02:06:59.448Z,102455.19
2023-02-19T02:09:47.843Z,102450.25
2023-02-19T02:12:15.560Z,102441.78
2023-02-19T02:14:48.233Z,102443.19
2023-02-19T02:17:56.870Z,102440.13
2023-02-19T02:21:02.562Z,102445.56
2023-02-19T02:23:41.335Z,102437.16
2023-02-19T02:26:25.573Z,102426.59
2023-02-19T02:29:11.478Z,102428.22
2023-02-19T02:31:43.682Z,102424.69
2023-02-19T02:34:27.660Z,102424.44
2023-02-19T02:36:57.617Z,102421.97
2023-02-19T02:39:28.322Z,102424.34
2023-02-19T02:42:17.342Z,102420.34
2023-02-19T02:45:11.510Z,102420.34
2023-02-19T02:47:55.379Z,102417.03
2023-02-19T02:50:26.738Z,102413.72
2023-02-19T02:53:18.896Z,102412.56
2023-02-19T02:55:49.894Z,102417.19
2023-02-19T02:58:18.242Z,102420.63
2023-02-19T03:01:11.215Z,102415.59
2023-02-19T03:03:41.775Z,102416.31
2023-02-19T03:06:12.580Z,102412.44
2023-02-19T03:09:00.456Z,102408.56
2023-02-19T03:11:48.017Z,102410.13
2023-02-19T03:15:02.650Z,102401.50
2023-02-19T03:18:00.304Z,102406.44
2023-02-19T03:20:28.329Z,102400.75
2023-02-19T03:22:57.073Z,102402.66
2023-02-19T03:25:46.597Z,102394.31
2023-02-19T03:28:41.620Z,102396.75
2023-02-19T03:31:15.894Z,102396.75
2023-02-19T03:33:45.785Z,102399.94
2023-02-19T03:36:19.184Z,102402.91
2023-02-19T03:38:46.359Z,102406.94
2023-02-19T03:41:26.589Z,102406.34
2023-02-19T03:44:09.919Z,102414.13
2023-02-19T03:46:51.317Z,102414.03
2023-02-19T03:49:50.094Z,102413.44
2023-02-19T03:52:54.301Z,102413.94
2023-02-19T03:55:51.822Z,102422.06
2023-02-19T03:58:50.263Z,102418.53
2023-02-19T04:01:23.248Z,102418.75
2023-02-19T04:04:35.539Z,102420.63
2023-02-19T04:07:04.498Z,102415.47
2023-02-19T04:09:43.049Z,102417.59
2023-02-19T04:12:15.773Z,102421.13
2023-02-19T04:14:47.432Z,102414.53
2023-02-19T04:17:25.918Z,102407.13
2023-02-19T04:19:54.196Z,102410.91
2023-02-19T04:22:22.907Z,102413.69
2023-02-19T04:24:53.676Z,102400.28
2023-02-19T04:27:20.798Z,102403.47
2023-02-19T04:29:48.375Z,102409.97
2023-02-19T04:32:15.478Z,102405.03
2023-02-19T04:34:42.567Z,102398.78
2023-02-19T04:37:09.579Z,102412.56
2023-02-19T04:39:36.790Z,102413.88
2023-02-19T04:42:04.144Z,102408.56
2023-02-19T04:44:31.159Z,102418.34
2023-02-19T04:46:58.290Z,102411.28
2023-02-19T04:49:25.278Z,102402.81
2023-02-19T04:51:52.419Z,102410.34
2023-02-19T04:54:19.392Z,102404.09
2023-02-19T04:56:46.569Z,102403.03
2023-02-19T04:59:13.844Z,102405.75
2023-02-19T05:01:41.092Z,102394.91
2023-02-19T05:04:08.318Z,102402.81
2023-02-19T05:06:35.555Z,102400.34
2023-02-19T05:09:02.668Z,102397.63
2023-02-19T05:11:29.822Z,102407.88
2023-02-19T05:13:57.073Z,102404.59
2023-02-19T05:16:24.327Z,102400.72
2023-02-19T05:18:51.397Z,102398.22
2023-02-19T05:21:18.990Z,102401.28
2023-02-19T05:23:46.155Z,102405.66
2023-02-19T05:26:18.101Z,102406.22
2023-02-19T05:28:47.570Z,102412.47
2023-02-19T05:31:15.199Z,102414.59
2023-02-19T05:33:44.318Z,102420.81
2023-02-19T05:36:13.812Z,102420.81
2023-02-19T05:38:42.020Z,102415.66
2023-02-19T05:41:13.992Z,102416.22
2023-02-19T05:43:42.360Z,102418.72
2023-02-19T05:46:10.954Z,102418.25
2023-02-19T05:48:38.184Z,102422.34
2023-02-19T05:51:08.314Z,102428.22
2023-02-19T05:53:35.696Z,102429.38
2023-02-19T05:56:03.180Z,102423.69
2023-02-19T05:58:30.555Z,102433.13
2023-02-19T06:00:57.617Z,102431.47
2023-02-19T06:03:24.734Z,102424.91
2023-02-19T06:05:51.898Z,102427.75
2023-02-19T06:08:19.010Z,102433.56
2023-02-19T06:10:46.237Z,102429.97
2023-02-19T06:13:13.283Z,102436.97
2023-02-19T06:15:40.557Z,102431.31
2023-02-19T06:18:07.538Z,102439.13
2023-02-19T06:20:34.779Z,102432.88
2023-02-19T06:23:01.903Z,102433.38
2023-02-19T06:25:29.065Z,102435.66
2023-02-19T06:27:56.138Z,102427.75
2023-02-19T06:30:26.124Z,102433.22
2023-02-19T06:32:54.397Z,102434.22
2023-02-19T06:35:21.663Z,102429.16
2023-02-19T06:37:49.688Z,102426.25
2023-02-19T06:40:17.342Z,102425.34
2023-02-19T06:42:44.600Z,102425.13
2023-02-19T06:45:11.912Z,102429.75
2023-02-19T06:47:38.988Z,102427.22
2023-02-19T06:50:06.592Z,102423.13
2023-02-19T06:52:33.581Z,102425.88
2023-02-19T06:55:00.800Z,102419.00
2023-02-19T06:57:27.850Z,102424.66
2023-02-19T06:59:54.948Z,102416.69
2023-02-19T07:02:22.019Z,102417.75
2023-02-19T07:04:49.234Z,102415.34
2023-02-19T07:07:16.373Z,102420.34
2023-02-19T07:09:43.377Z,102413.81
2023-02-19T07:12:10.593Z,102421.06
2023-02-19T07:14:37.681Z,102423.00
2023-02-19T07:17:06.920Z,102420.09
2023-02-19T07:19:35.031Z,102419.19
2023-02-19T07:22:02.098Z,102424.03
2023-02-19T07:24:29.227Z,102427.38
2023-02-19T07:26:56.369Z,102421.75
2023-02-19T07:29:23.549Z,102423.00
2023-02-19T07:31:50.768Z,102422.59
2023-02-19T07:34:17.996Z,102420.34
2023-02-19T07:36:45.155Z,102413.00
2023-02-19T07:39:15.830Z,102420.50
2023-02-19T07:41:43.141Z,102413.78
2023-02-19T07:44:16.538Z,102420.63
2023-02-19T07:46:44.302Z,102423.44
2023-02-19T07:49:11.432Z,102427.44
2023-02-19T07:51:40.078Z,102423.84
2023-02-19T07:54:08.229Z,102414.63
2023-02-19T07:56:35.424Z,102412.00
2023-02-19T07:59:02.545Z,102413.09
2023-02-19T08:01:48.421Z,102413.41
2023-02-19T08:04:16.859Z,102402.50
2023-02-19T08:06:44.216Z,102398.63
2023-02-19T08:09:12.015Z,102411.38
2023-02-19T08:11:57.735Z,102412.38
2023-02-19T08:14:28.301Z,102409.84
2023-02-19T08:16:55.974Z,102409.56
2023-02-19T08:19:23.398Z,102419.19
2023-02-19T08:21:50.866Z,102416.19
2023-02-19T08:24:17.838Z,102420.06
2023-02-19T08:26:45.103Z,102423.88
2023-02-19T08:29:12.172Z,102423.88
2023-02-19T08:31:39.633Z,102432.34
2023-02-19T08:34:06.958Z,102438.63
2023-02-19T08:36:34.001Z,102423.63
2023-02-19T08:39:01.090Z,102431.25
2023-02-19T08:41:28.315Z,102425.78
2023-02-19T08:43:55.459Z,102430.41
2023-02-19T08:46:22.964Z,102432.59
2023-02-19T08:48:50.466Z,102432.06
2023-02-19T08:51:17.526Z,102434.25
2023-02-19T08:53:44.685Z,102429.63
2023-02-19T08:56:15.133Z,102432.88
2023-02-19T08:58:42.856Z,102432.59
2023-02-19T09:01:12.705Z,102422.22
2023-02-19T09:03:40.409Z,102424.13
2023-02-19T09:06:08.267Z,102419.78
2023-02-19T09:08:35.444Z,102428.50
2023-02-19T09:11:04.706Z,102426.59
2023-02-19T09:13:31.897Z,102415.13
2023-02-19T09:15:59.275Z,102420.84
2023-02-19T09:18:26.913Z,102423.84
2023-02-19T09:20:54.069Z,102420.53
2023-02-19T09:23:21.244Z,102415.34
2023-02-19T09:25:48.271Z,102409.03
2023-02-19T09:28:17.028Z,102417.41
2023-02-19T09:30:44.155Z,102413.84
2023-02-19T09:33:11.295Z,102411.72
2023-02-19T09:35:41.222Z,102417.16
2023-02-19T09:38:10.781Z,102407.03
2023-02-19T09:40:39.449Z,102405.00
2023-02-19T09:43:15.545Z,102409.13
2023-02-19T09:45:43.095Z,102408.31
2023-02-19T09:48:11.273Z,102404.47
2023-02-19T09:50:42.819Z,102400.69
2023-02-19T09:53:21.185Z,102392.75
2023-02-19T09:55:48.735Z,102396.72
2023-02-19T09:58:30.969Z,102392.09
2023-02-19T10:01:01.778Z,102397.94
2023-02-19T10:03:35.231Z,102392.47
2023-02-19T10:06:11.178Z,102388.09
2023-02-19T10:08:41.617Z,102395.47
2023-02-19T10:11:13.228Z,102386.41
2023-02-19T10:13:48.228Z,102378.75
2023-02-19T10:16:24.526Z,102372.13
2023-02-19T10:18:52.154Z,102369.94
2023-02-19T10:21:22.946Z,102370.19
2023-02-19T10:24:00.057Z,102360.59
2023-02-19T10:26:27.729Z,102362.78
2023-02-19T10:28:55.707Z,102361.09
2023-02-19T10:31:25.968Z,102354.50
2023-02-19T10:33:56.146Z,102358.84
2023-02-19T10:36:34.195Z,102355.47
2023-02-19T10:39:03.990Z,102351.34
2023-02-19T10:41:31.727Z,102343.09
2023-02-19T10:44:13.933Z,102354.25
2023-02-19T10:46:47.423Z,102333.66
2023-02-19T10:49:33.110Z,102337.72
2023-02-19T10:52:20.197Z,102330.81
2023-02-19T10:54:55.392Z,102323.41
2023-02-19T10:57:34.276Z,102319.16
2023-02-19T11:00:15.443Z,102317.34
2023-02-19T11:02:46.050Z,102303.06
2023-02-19T11:05:15.208Z,102307.38
2023-02-19T11:07:49.636Z,102301.44
2023-02-19T11:10:42.433Z,102283.97
2023-02-19T11:13:16.901Z,102294.38
2023-02-19T11:15:44.549Z,102289.41
2023-02-19T11:18:14.537Z,102293.13
2023-02-19T11:20:57.736Z,102284.09
2023-02-19T11:23:30.977Z,102286.66
2023-02-19T11:26:02.888Z,102284.69
2023-02-19T11:28:34.592Z,102274.94
2023-02-19T11:31:23.848Z,102280.47
2023-02-19T11:33:54.414Z,102270.84
2023-02-19T11:36:34.985Z,102264.53
2023-02-19T11:39:17.065Z,102268.94
2023-02-19T11:42:04.519Z,102261.78
2023-02-19T11:45:04.808Z,102259.84
2023-02-19T11:47:59.794Z,102252.91
2023-02-19T11:50:55.748Z,102240.66
2023-02-19T11:53:32.371Z,102237.25
2023-02-19T11:56:09.906Z,102230.19
2023-02-19T11:59:05.770Z,102232.59
2023-02-19T12:01:54.332Z,102231.19
2023-02-19T12:04:40.207Z,102220.59
2023-02-19T12:07:48.832Z,102226.75
2023-02-19T12:10:25.101Z,102208.00
2023-02-19T12:13:23.686Z,102219.31
2023-02-19T12:16:18.219Z,102220.22
2023-02-19T12:18:54.043Z,102209.19
2023-02-19T12:21:36.367Z,102219.22
2023-02-19T12:24:15.918Z,102201.00
2023-02-19T12:27:07.829Z,102194.13
2023-02-19T12:30:03.313Z,102204.16
2023-02-19T12:33:01.074Z,102196.22
2023-02-19T12:35:54.218Z,102193.41
2023-02-19T12:38:40.032Z,102198.66
2023-02-19T12:41:16.201Z,102186.88
2023-02-19T12:43:53.421Z,102182.34
2023-02-19T12:46:28.358Z,102182.94
2023-02-19T12:49:21.405Z,102176.66
2023-02-19T12:52:16.577Z,102174.97
2023-02-19T12:54:51.067Z,102170.72
2023-02-19T12:57:26.120Z,102173.38
2023-02-19T13:00:00.380Z,102169.00
2023-02-19T13:03:20.966Z,102164.78
2023-02-19T13:05:58.792Z,102169.09
2023-02-19T13:09:07.228Z,102158.81
2023-02-19T13:11:53.672Z,102149.53
2023-02-19T13:14:43.711Z,102143.34
2023-02-19T13:17:20.633Z,102146.53
2023-02-19T13:19:50.954Z,102143.22
2023-02-19T13:22:58.225Z,102138.19
2023-02-19T13:25:52.180Z,102137.59
2023-02-19T13:28:31.330Z,102147.00
2023-02-19T13:31:32.545Z,102145.97
2023-02-19T13:34:05.657Z,102140.69
2023-02-19T13:36:36.495Z,102136.50
2023-02-19T13:39:07.469Z,102142.63
2023-02-19T13:41:41.752Z,102135.00
2023-02-19T13:44:19.209Z,102133.66
2023-02-19T13:46:48.880Z,102142.09
2023-02-19T13:49:42.395Z,102136.38
2023-02-19T13:52:33.631Z,102134.78
2023-02-19T13:55:40.747Z,102138.00
2023-02-19T13:58:33.362Z,102129.72
2023-02-19T14:01:01.552Z,102125.91
2023-02-19T14:03:48.533Z,102131.75
2023-02-19T14:06:15.864Z,102128.03
2023-02-19T14:08:51.553Z,102127.03
2023-02-19T14:11:41.577Z,102122.94
2023-02-19T14:14:34.447Z,102126.72
2023-02-19T14:17:35.095Z,102122.41
2023-02-19T14:20:05.256Z,102118.91
2023-02-19T14:22:48.919Z,102117.72
2023-02-19T14:25:31.207Z,102118.75
2023-02-19T14:28:25.506Z,102116.47
2023-02-19T14:30:57.390Z,102123.38
2023-02-19T14:33:49.644Z,102119.69
2023-02-19T14:36:44.313Z,102111.66
2023-02-19T14:39:21.467Z,102126.16
2023-02-19T14:41:54.813Z,102120.66
2023-02-19T14:44:38.176Z,102116.03
2023-02-19T14:47:22.031Z,102111.94
2023-02-19T14:50:01.290Z,102124.88
2023-02-19T14:52:32.881Z,102125.97
2023-02-19T14:55:00.090Z,102118.63
2023-02-19T14:57:36.073Z,102120.63
2023-02-19T15:00:21.955Z,102117.66
2023-02-19T15:02:51.717Z,102111.16
2023-02-19T15:05:24.796Z,102113.66
2023-02-19T15:07:55.364Z,102106.34
2023-02-19T15:10:23.083Z,102108.22
2023-02-19T15:12:57.849Z,102105.78
2023-02-19T15:15:29.444Z,102104.44
2023-02-19T15:17:59.281Z,102106.44
2023-02-19T15:20:31.049Z,102109.91
2023-02-19T15:22:59.763Z,102108.84
2023-02-19T15:25:39.368Z,102113.19
2023-02-19T15:28:20.834Z,102109.34
2023-02-19T15:31:00.035Z,102111.00
2023-02-19T15:33:28.698Z,102116.50
2023-02-19T15:36:03.305Z,102119.28
2023-02-19T15:38:31.798Z,102112.97
2023-02-19T15:41:00.122Z,102107.31
2023-02-19T15:43:51.431Z,102105.63
2023-02-19T15:46:22.550Z,102114.41
2023-02-19T15:48:55.695Z,102113.91
2023-02-19T15:51:32.106Z,102106.81
2023-02-19T15:54:08.000Z,102109.28
2023-02-19T15:56:38.521Z,102104.69
2023-02-19T15:59:36.719Z,102111.00
2023-02-19T16:02:05.113Z,102109.41
2023-02-19T16:04:34.720Z,102108.59
2023-02-19T16:07:03.997Z,102103.69
2023-02-19T16:09:33.687Z,102110.25
2023-02-19T16:12:02.385Z,102105.94
2023-02-19T16:14:37.617Z,102107.84
2023-02-19T16:17:10.911Z,102110.94
2023-02-19T16:19:44.206Z,102110.69
2023-02-19T16:22:24.564Z,102097.84
2023-02-19T16:24:55.533Z,102099.78
2023-02-19T16:27:41.934Z,102091.84
2023-02-19T16:30:18.367Z,102101.16
2023-02-19T16:32:47.113Z,102104.69
2023-02-19T16:35:37.226Z,102104.44
2023-02-19T16:38:14.352Z,102108.81
2023-02-19T16:40:54.565Z,102106.94
2023-02-19T16:43:31.758Z,102110.78
2023-02-19T16:46:00.848Z,102105.06
2023-02-19T16:48:29.123Z,102102.34
2023-02-19T16:50:56.884Z,102108.34
2023-02-19T16:53:25.416Z,102100.41
2023-02-19T16:55:53.229Z,102106.72
2023-02-19T16:58:22.078Z,102114.34
2023-02-19T17:01:01.936Z,102119.28
2023-02-19T17:03:29.866Z,102115.44
2023-02-19T17:05:58.368Z,102113.28
2023-02-19T17:08:40.111Z,102120.13
2023-02-19T17:11:15.853Z,102121.19
2023-02-19T17:13:46.955Z,102124.19
2023-02-19T17:16:30.393Z,102124.47
2023-02-19T17:19:01.392Z,102126.91
2023-02-19T17:21:32.307Z,102120.91
2023-02-19T17:24:00.890Z,102126.91
2023-02-19T17:26:31.208Z,102123.34
2023-02-19T17:29:01.538Z,102131.28
2023-02-19T17:31:30.606Z,102125.81
2023-02-19T17:34:00.691Z,102131.28
2023-02-19T17:36:31.932Z,102129.94
2023-02-19T17:39:02.882Z,102129.09
2023-02-19T17:41:31.622Z,102132.91
2023-02-19T17:44:00.480Z,102143.28
2023-02-19T17:46:29.044Z,102142.72
2023-02-19T17:48:58.181Z,102137.81
2023-02-19T17:51:26.949Z,102140.28
2023-02-19T17:53:55.680Z,102137.03
2023-02-19T17:56:27.097Z,102145.47
2023-02-19T17:58:58.004Z,102140.56
2023-02-19T18:01:27.877Z,102139.22
2023-02-19T18:03:56.725Z,102141.38
2023-02-19T18:06:25.113Z,102137.84
2023-02-19T18:08:55.426Z,102135.66
2023-02-19T18:11:25.752Z,102137.03
2023-02-19T18:13:55.237Z,102149.03
2023-02-19T18:16:23.725Z,102143.03
2023-02-19T18:18:51.980Z,102144.09
2023-02-19T18:21:21.183Z,102147.13
2023-02-19T18:23:50.276Z,102141.13
2023-02-19T18:26:21.680Z,102146.31
2023-02-19T18:28:49.926Z,102144.69
2023-02-19T18:31:17.571Z,102154.78
2023-02-19T18:33:45.154Z,102158.59
2023-02-19T18:36:13.718Z,102148.22
2023-02-19T18:38:43.034Z,102150.69
2023-02-19T18:41:14.847Z,102149.88
2023-02-19T18:43:42.637Z,102149.31
2023-02-19T18:46:10.790Z,102157.50
2023-02-19T18:48:39.252Z,102155.06
2023-02-19T18:51:11.129Z,102151.22
2023-02-19T18:53:38.621Z,102153.69
2023-02-19T18:56:09.177Z,102146.03
2023-02-19T18:58:36.520Z,102153.13
2023-02-19T19:01:03.753Z,102154.50
2023-02-19T19:03:32.154Z,102147.66
2023-02-19T19:05:59.755Z,102148.22
2023-02-19T19:08:29.143Z,102144.97
2023-02-19T19:10:57.654Z,102155.06
2023-02-19T19:13:25.672Z,102142.78
2023-02-19T19:15:52.764Z,102150.13
2023-02-19T19:18:19.976Z,102153.13
2023-02-19T19:20:47.313Z,102149.88
2023-02-19T19:23:14.712Z,102150.41
2023-02-19T19:25:41.775Z,102154.19
2023-02-19T19:28:09.197Z,102164.84
2023-02-19T19:30:36.653Z,102165.94
2023-02-19T19:33:04.338Z,102166.19
2023-02-19T19:35:35.007Z,102157.47
2023-02-19T19:38:02.622Z,102167.81
2023-02-19T19:40:30.785Z,102163.72
2023-02-19T19:42:58.080Z,102165.38
2023-02-19T19:45:25.388Z,102173.81
2023-02-19T19:47:53.274Z,102181.44
2023-02-19T19:50:21.590Z,102179.81
2023-02-19T19:52:49.907Z,102173.56
2023-02-19T19:55:17.812Z,102171.63
2023-02-19T19:57:45.194Z,102173.56
2023-02-19T20:00:16.365Z,102170.25
2023-02-19T20:02:47.001Z,102175.72
2023-02-19T20:05:17.012Z,102174.91
2023-02-19T20:07:45.991Z,102181.69
2023-02-19T20:10:16.417Z,102186.34
2023-02-19T20:12:44.530Z,102181.16
2023-02-19T20:15:13.566Z,102186.88
2023-02-19T20:17:41.184Z,102188.75
2023-02-19T20:20:09.998Z,102188.22
2023-02-19T20:22:39.497Z,102187.41
2023-02-19T20:25:07.263Z,102188.75
2023-02-19T20:27:34.635Z,102185.72
2023-02-19T20:30:02.370Z,102189.00
2023-02-19T20:32:29.520Z,102189.81
2023-02-19T20:34:56.815Z,102186.25
2023-02-19T20:37:23.858Z,102193.88
2023-02-19T20:39:51.123Z,102184.88
2023-02-19T20:42:19.126Z,102185.97
2023-02-19T20:44:46.346Z,102188.94
2023-02-19T20:47:13.812Z,102188.41
2023-02-19T20:49:46.529Z,102201.22
2023-02-19T20:52:17.355Z,102196.84
2023-02-19T20:54:45.176Z,102193.31
2023-02-19T20:57:14.362Z,102205.28
2023-02-19T20:59:41.825Z,102202.00
2023-02-19T21:02:16.853Z,102203.06
2023-02-19T21:04:44.279Z,102205.22
2023-02-19T21:07:11.384Z,102206.00
2023-02-19T21:09:38.771Z,102208.94
2023-02-19T21:12:06.180Z,102210.03
2023-02-19T21:14:33.642Z,102204.03
2023-02-19T21:17:01.428Z,102196.16
2023-02-19T21:19:29.441Z,102202.41
2023-02-19T21:21:59.955Z,102194.25
2023-02-19T21:24:28.633Z,102198.88
2023-02-19T21:26:57.124Z,102205.13
2023-02-19T21:29:27.320Z,102210.81
2023-02-19T21:31:58.309Z,102205.66
2023-02-19T21:34:29.444Z,102213.25
2023-02-19T21:36:57.856Z,102203.97
2023-02-19T21:39:27.778Z,102210.00
2023-02-19T21:41:55.932Z,102212.97
2023-02-19T21:44:23.605Z,102211.03
2023-02-19T21:46:51.367Z,102215.38
2023-02-19T21:49:19.328Z,102221.34
2023-02-19T21:51:49.079Z,102215.59
2023-02-19T21:54:21.307Z,102214.75
2023-02-19T21:56:49.018Z,102209.88
2023-02-19T21:59:16.141Z,102210.16
2023-02-19T22:01:43.703Z,102213.69
2023-02-19T22:04:14.635Z,102213.94
2023-02-19T22:06:42.373Z,102220.19
2023-02-19T22:09:10.342Z,102213.34
2023-02-19T22:11:37.685Z,102221.78
2023-02-19T22:14:04.920Z,102226.94
2023-02-19T22:16:32.466Z,102218.72
2023-02-19T22:19:01.841Z,102227.16
2023-02-19T22:21:34.550Z,102230.41
2023-02-19T22:24:03.198Z,102227.06
2023-02-19T22:26:34.137Z,102225.13
2023-02-19T22:29:07.304Z,102218.88
2023-02-19T22:31:35.852Z,102213.44
2023-02-19T22:34:03.152Z,102211.84
2023-02-19T22:36:32.025Z,102212.69
2023-02-19T22:38:59.589Z,102210.78
2023-02-19T22:41:27.235Z,102212.69
2023-02-19T22:43:55.827Z,102212.13
2023-02-19T22:46:25.634Z,102217.03
2023-02-19T22:48:52.962Z,102217.53
2023-02-19T22:51:22.514Z,102210.72
2023-02-19T22:53:52.065Z,102222.69
2023-02-19T22:56:23.450Z,102213.97
2023-02-19T22:58:51.447Z,102217.50
2023-02-19T23:01:19.117Z,102217.19
2023-02-19T23:03:56.750Z,102219.91
2023-02-19T23:06:27.403Z,102217.72
2023-02-19T23:08:56.820Z,102220.69
2023-02-19T23:11:27.079Z,102222.84
2023-02-19T23:13:56.057Z,102218.75
2023-02-19T23:16:23.273Z,102220.66
2023-02-19T23:18:50.798Z,102229.06
2023-02-19T23:21:18.984Z,102236.09
2023-02-19T23:23:48.224Z,102234.72
2023-02-19T23:26:16.015Z,102233.34
2023-02-19T23:28:43.800Z,102237.69
2023-02-19T23:31:11.608Z,102237.38
2023-02-19T23:33:39.008Z,102238.72
2023-02-19T23:36:07.039Z,102240.03
2023-02-19T23:38:34.193Z,102234.34
2023-02-19T23:41:01.456Z,102231.34
2023-02-19T23:43:28.578Z,102227.00
2023-02-19T23:45:55.835Z,102229.72
2023-02-19T23:48:23.066Z,102229.38
2023-02-19T23:50:50.126Z,102233.75
2023-02-19T23:53:17.440Z,102227.81
2023-02-19T23:55:44.504Z,102233.47
2023-02-19T23:58:11.707Z,102229.13
